createdAt,value
2023-11-21T00:00:18.307Z,2.83
2023-11-21T00:02:48.824Z,3.43
2023-11-21T00:05:17.186Z,3.10
2023-11-21T00:07:44.890Z,3.13
2023-11-21T00:10:12.947Z,3.70
2023-11-21T00:12:42.939Z,3.30
2023-11-21T00:15:12.023Z,3.10
2023-11-21T00:17:40.557Z,3.60
2023-11-21T00:20:08.483Z,3.13
2023-11-21T00:22:36.575Z,3.70
2023-11-21T00:25:05.179Z,3.73
2023-11-21T00:27:32.413Z,3.27
2023-11-21T00:29:59.571Z,3.80
2023-11-21T00:32:26.793Z,3.10
2023-11-21T00:34:55.731Z,4.27
2023-11-21T00:37:22.984Z,3.60
2023-11-21T00:39:50.182Z,3.73
2023-11-21T00:42:17.370Z,3.50
2023-11-21T00:44:44.513Z,3.60
2023-11-21T00:47:11.717Z,3.27
2023-11-21T00:49:40.562Z,3.43
2023-11-21T00:52:08.285Z,3.60
2023-11-21T00:54:35.693Z,3.17
2023-11-21T00:57:02.880Z,3.80
2023-11-21T00:59:30.120Z,3.30
2023-11-21T01:01:57.453Z,3.33
2023-11-21T01:04:24.793Z,3.50
2023-11-21T01:06:52.009Z,3.40
2023-11-21T01:09:19.694Z,3.27
2023-11-21T01:11:47.435Z,3.30
2023-11-21T01:14:14.740Z,3.40
2023-11-21T01:16:42.221Z,2.93
2023-11-21T01:19:10.581Z,3.40
2023-11-21T01:21:38.063Z,3.30
2023-11-21T01:24:08.374Z,3.80
2023-11-21T01:26:35.662Z,3.40
2023-11-21T01:29:02.885Z,3.33
2023-11-21T01:31:30.990Z,3.30
2023-11-21T01:33:58.484Z,3.50
2023-11-21T01:36:32.940Z,3.67
2023-11-21T01:39:00.423Z,3.60
2023-11-21T01:41:28.415Z,3.20
2023-11-21T01:43:55.731Z,3.87
2023-11-21T01:46:23.377Z,3.90
2023-11-21T01:48:50.654Z,3.60
2023-11-21T01:51:18.570Z,3.77
2023-11-21T01:53:47.854Z,3.70
2023-11-21T01:56:15.125Z,3.73
2023-11-21T01:58:42.546Z,3.73
2023-11-21T02:01:11.054Z,4.50
2023-11-21T02:03:38.301Z,4.30
2023-11-21T02:06:06.528Z,4.30
2023-11-21T02:08:34.109Z,4.40
2023-11-21T02:11:01.363Z,4.10
2023-11-21T02:13:29.596Z,4.80
2023-11-21T02:15:57.265Z,4.37
2023-11-21T02:18:24.564Z,3.83
2023-11-21T02:20:52.218Z,4.53
2023-11-21T02:23:19.364Z,4.10
2023-11-21T02:25:46.599Z,4.60
2023-11-21T02:28:16.561Z,4.73
2023-11-21T02:30:44.781Z,4.60
2023-11-21T02:33:13.559Z,4.47
2023-11-21T02:35:41.011Z,4.33
2023-11-21T02:38:08.191Z,4.67
2023-11-21T02:40:35.431Z,4.20
2023-11-21T02:43:02.652Z,4.40
2023-11-21T02:45:30.023Z,4.17
2023-11-21T02:47:58.574Z,4.77
2023-11-21T02:50:26.492Z,4.60
2023-11-21T02:52:53.677Z,4.50
2023-11-21T02:55:20.981Z,4.50
2023-11-21T02:57:48.152Z,4.30
2023-11-21T03:00:16.209Z,5.03
2023-11-21T03:02:43.745Z,5.33
2023-11-21T03:05:11.480Z,4.70
2023-11-21T03:07:39.548Z,4.60
2023-11-21T03:10:07.305Z,4.77
2023-11-21T03:12:34.453Z,4.63
2023-11-21T03:15:03.078Z,4.97
2023-11-21T03:17:30.388Z,5.10
2023-11-21T03:19:58.445Z,4.97
2023-11-21T03:22:25.733Z,5.43
2023-11-21T03:24:52.950Z,5.17
2023-11-21T03:27:20.435Z,4.90
2023-11-21T03:29:47.821Z,6.13
2023-11-21T03:32:15.160Z,5.70
2023-11-21T03:34:56.657Z,7.50
2023-11-21T03:37:24.215Z,7.23
2023-11-21T03:39:51.401Z,5.67
2023-11-21T03:42:18.934Z,6.80
2023-11-21T03:44:46.069Z,6.60
2023-11-21T03:47:13.545Z,7.10
2023-11-21T03:49:40.756Z,6.90
2023-11-21T03:52:08.882Z,7.30
2023-11-21T03:54:36.450Z,7.67
2023-11-21T03:57:03.727Z,7.73
2023-11-21T03:59:30.940Z,7.90
2023-11-21T04:01:58.558Z,8.30
2023-11-21T04:04:25.866Z,8.20
2023-11-21T04:06:53.224Z,9.13
2023-11-21T04:09:20.515Z,9.13
2023-11-21T04:11:48.077Z,8.63
2023-11-21T04:14:15.252Z,8.77
2023-11-21T04:16:43.151Z,8.30
2023-11-21T04:19:11.493Z,8.70
2023-11-21T04:21:39.312Z,9.83
2023-11-21T04:24:07.279Z,9.57
2023-11-21T04:26:34.530Z,9.77
2023-11-21T04:29:01.659Z,10.07
2023-11-21T04:31:28.928Z,10.20
2023-11-21T04:33:56.115Z,10.00
2023-11-21T04:36:23.500Z,8.37
2023-11-21T04:38:50.645Z,9.20
2023-11-21T04:41:19.097Z,9.10
2023-11-21T04:43:46.332Z,9.17
2023-11-21T04:46:13.510Z,10.00
2023-11-21T04:48:40.753Z,9.70
2023-11-21T04:51:08.020Z,10.30
2023-11-21T04:53:36.052Z,9.60
2023-11-21T04:56:04.608Z,10.90
2023-11-21T04:58:31.870Z,10.43
2023-11-21T05:00:59.340Z,8.93
2023-11-21T05:03:27.461Z,8.53
2023-11-21T05:05:54.759Z,9.57
2023-11-21T05:08:23.513Z,10.37
2023-11-21T05:10:51.045Z,9.00
2023-11-21T05:13:18.787Z,9.73
2023-11-21T05:15:46.757Z,10.17
2023-11-21T05:18:16.733Z,10.47
2023-11-21T05:20:43.879Z,10.20
2023-11-21T05:23:11.296Z,9.67
2023-11-21T05:25:41.050Z,10.40
2023-11-21T05:28:08.711Z,9.60
2023-11-21T05:30:35.930Z,10.87
2023-11-21T05:33:03.186Z,10.00
2023-11-21T05:35:30.301Z,10.00
2023-11-21T05:37:57.499Z,10.23
2023-11-21T05:40:24.729Z,9.47
2023-11-21T05:42:52.996Z,9.93
2023-11-21T05:45:20.260Z,10.50
2023-11-21T05:47:48.336Z,10.37
2023-11-21T05:50:16.699Z,10.50
2023-11-21T05:52:44.966Z,12.53
2023-11-21T05:55:12.448Z,11.20
2023-11-21T05:57:40.445Z,11.00
2023-11-21T06:00:12.527Z,10.17
2023-11-21T06:02:40.696Z,11.47
2023-11-21T06:05:11.550Z,11.77
2023-11-21T06:07:39.369Z,11.87
2023-11-21T06:10:08.979Z,12.20
2023-11-21T06:12:37.019Z,12.23
2023-11-21T06:15:06.252Z,13.43
2023-11-21T06:17:33.727Z,13.20
2023-11-21T06:20:02.032Z,13.63
2023-11-21T06:22:31.613Z,13.47
2023-11-21T06:24:59.265Z,12.77
2023-11-21T06:27:26.455Z,13.27
2023-11-21T06:29:53.605Z,13.23
2023-11-21T06:32:22.143Z,14.43
2023-11-21T06:34:49.448Z,13.83
2023-11-21T06:37:17.978Z,12.37
2023-11-21T06:39:45.121Z,13.83
2023-11-21T06:42:12.265Z,13.27
2023-11-21T06:44:40.328Z,11.30
2023-11-21T06:47:07.581Z,11.80
2023-11-21T06:49:34.843Z,11.37
2023-11-21T06:52:03.772Z,10.73
2023-11-21T06:54:30.963Z,10.20
2023-11-21T06:56:58.099Z,9.67
2023-11-21T06:59:25.659Z,9.80
2023-11-21T07:01:52.886Z,9.90
2023-11-21T07:04:20.141Z,9.47
2023-11-21T07:06:47.684Z,8.90
2023-11-21T07:09:14.892Z,11.13
2023-11-21T07:11:44.235Z,20.07
2023-11-21T07:14:11.574Z,12.57
2023-11-21T07:16:39.070Z,11.33
2023-11-21T07:19:09.399Z,10.57
2023-11-21T07:21:37.291Z,10.73
2023-11-21T07:24:05.579Z,11.33
2023-11-21T07:26:32.702Z,11.97
2023-11-21T07:28:59.898Z,11.47
2023-11-21T07:31:27.196Z,11.63
2023-11-21T07:33:54.438Z,11.30
2023-11-21T07:36:24.806Z,10.73
2023-11-21T07:38:52.062Z,12.57
2023-11-21T07:41:28.492Z,12.60
2023-11-21T07:43:59.127Z,12.13
2023-11-21T07:46:27.748Z,12.10
2023-11-21T07:48:56.406Z,11.57
2023-11-21T07:51:23.739Z,11.73
2023-11-21T07:53:51.085Z,11.60
2023-11-21T07:56:18.952Z,12.27
2023-11-21T07:58:46.830Z,12.40
2023-11-21T08:01:14.113Z,12.17
2023-11-21T08:03:41.411Z,10.53
2023-11-21T08:06:08.868Z,10.93
2023-11-21T08:08:36.069Z,11.33
2023-11-21T08:11:04.852Z,11.67
2023-11-21T08:13:32.189Z,11.67
2023-11-21T08:16:04.786Z,10.97
2023-11-21T08:18:32.064Z,11.37
2023-11-21T08:20:59.256Z,11.70
2023-11-21T08:23:26.706Z,13.90
2023-11-21T08:25:54.592Z,13.30
2023-11-21T08:28:27.093Z,11.07
2023-11-21T08:30:55.595Z,10.50
2023-11-21T08:33:23.416Z,11.20
2023-11-21T08:35:51.468Z,10.90
2023-11-21T08:38:18.860Z,11.10
2023-11-21T08:40:46.092Z,11.53
2023-11-21T08:43:15.180Z,12.20
2023-11-21T08:45:42.402Z,12.57
2023-11-21T08:48:09.871Z,13.57
2023-11-21T08:50:37.077Z,13.20
2023-11-21T08:53:04.364Z,14.40
2023-11-21T08:55:31.560Z,13.97
2023-11-21T08:58:01.423Z,13.30
2023-11-21T09:00:29.985Z,12.40
2023-11-21T09:02:57.208Z,12.90
2023-11-21T09:05:24.457Z,12.87
2023-11-21T09:07:51.778Z,11.83
2023-11-21T09:10:19.028Z,12.80
2023-11-21T09:12:46.260Z,11.77
2023-11-21T09:15:14.125Z,10.77
2023-11-21T09:17:41.890Z,11.80
2023-11-21T09:20:11.289Z,11.50
2023-11-21T09:22:38.858Z,10.83
2023-11-21T09:25:06.451Z,10.50
2023-11-21T09:27:33.593Z,10.30
2023-11-21T09:30:00.786Z,9.50
2023-11-21T09:32:27.910Z,11.23
2023-11-21T09:34:59.237Z,9.70
2023-11-21T09:37:28.178Z,8.90
2023-11-21T09:39:56.231Z,8.87
2023-11-21T09:42:23.429Z,8.43
2023-11-21T09:44:59.491Z,7.83
2023-11-21T09:47:27.652Z,7.87
2023-11-21T09:49:56.226Z,6.80
2023-11-21T09:52:27.672Z,6.73
2023-11-21T09:54:55.566Z,6.93
2023-11-21T09:57:23.188Z,6.70
2023-11-21T09:59:53.429Z,6.80
2023-11-21T10:02:21.932Z,6.50
2023-11-21T10:04:49.283Z,5.83
2023-11-21T10:07:19.518Z,5.97
2023-11-21T10:09:46.750Z,5.60
2023-11-21T10:12:15.397Z,5.40
2023-11-21T10:14:44.623Z,5.27
2023-11-21T10:17:13.392Z,5.17
2023-11-21T10:19:41.676Z,4.67
2023-11-21T10:22:09.862Z,4.60
2023-11-21T10:24:45.268Z,4.50
2023-11-21T10:27:19.901Z,4.47
2023-11-21T10:29:47.019Z,3.90
2023-11-21T10:32:14.333Z,3.10
2023-11-21T10:34:42.540Z,3.20
2023-11-21T10:37:13.696Z,3.27
2023-11-21T10:39:41.242Z,3.40
2023-11-21T10:42:11.411Z,3.13
2023-11-21T10:44:38.919Z,3.00
2023-11-21T10:47:06.626Z,3.33
2023-11-21T10:49:33.894Z,3.63
2023-11-21T10:52:01.598Z,3.30
2023-11-21T10:54:28.920Z,3.43
2023-11-21T10:57:02.972Z,3.30
2023-11-21T10:59:34.280Z,3.20
2023-11-21T11:02:04.879Z,3.37
2023-11-21T11:04:33.257Z,3.20
2023-11-21T11:07:06.111Z,2.80
2023-11-21T11:09:35.040Z,3.40
2023-11-21T11:12:05.853Z,2.77
2023-11-21T11:14:33.714Z,2.77
2023-11-21T11:17:02.161Z,3.20
2023-11-21T11:19:29.543Z,2.60
2023-11-21T11:21:59.473Z,2.60
2023-11-21T11:24:32.692Z,2.70
2023-11-21T11:27:00.056Z,2.50
2023-11-21T11:29:45.962Z,2.60
2023-11-21T11:32:16.198Z,2.60
2023-11-21T11:34:51.064Z,2.67
2023-11-21T11:37:18.345Z,2.40
2023-11-21T11:39:46.472Z,2.43
2023-11-21T11:42:15.132Z,2.67
2023-11-21T11:44:47.276Z,2.80
2023-11-21T11:47:19.497Z,3.00
2023-11-21T11:50:08.222Z,3.13
2023-11-21T11:52:40.878Z,2.77
2023-11-21T11:55:11.151Z,2.70
2023-11-21T11:57:39.830Z,2.77
2023-11-21T12:00:21.393Z,2.70
2023-11-21T12:02:52.996Z,2.80
2023-11-21T12:05:21.561Z,2.63
2023-11-21T12:07:54.398Z,2.50
2023-11-21T12:10:23.700Z,2.40
2023-11-21T12:12:51.383Z,2.20
2023-11-21T12:15:18.755Z,2.43
2023-11-21T12:17:46.346Z,2.77
2023-11-21T12:20:18.487Z,2.60
2023-11-21T12:22:45.805Z,2.50
2023-11-21T12:25:17.289Z,2.30
2023-11-21T12:27:46.649Z,2.57
2023-11-21T12:30:16.627Z,2.23
2023-11-21T12:32:44.874Z,2.10
2023-11-21T12:35:12.563Z,1.80
2023-11-21T12:37:40.525Z,1.88
2023-11-21T12:40:16.369Z,1.80
2023-11-21T12:42:44.260Z,1.70
2023-11-21T12:45:18.053Z,1.50
2023-11-21T12:47:52.012Z,1.73
2023-11-21T12:50:24.611Z,1.77
2023-11-21T12:52:54.534Z,1.63
2023-11-21T12:55:22.999Z,2.00
2023-11-21T12:57:55.605Z,1.88
2023-11-21T13:00:30.853Z,1.60
2023-11-21T13:02:59.483Z,1.83
2023-11-21T13:05:28.077Z,1.75
2023-11-21T13:07:55.860Z,2.00
2023-11-21T13:10:28.341Z,1.90
2023-11-21T13:12:56.120Z,1.98
2023-11-21T13:15:23.321Z,2.05
2023-11-21T13:17:52.156Z,1.88
2023-11-21T13:20:21.207Z,2.13
2023-11-21T13:22:55.558Z,2.00
2023-11-21T13:25:23.414Z,2.30
2023-11-21T13:27:51.090Z,2.00
2023-11-21T13:30:24.044Z,2.07
2023-11-21T13:32:52.533Z,2.10
2023-11-21T13:35:31.623Z,2.23
2023-11-21T13:38:01.059Z,2.30
2023-11-21T13:40:28.316Z,2.70
2023-11-21T13:42:56.141Z,3.20
2023-11-21T13:45:24.195Z,2.60
2023-11-21T13:47:52.862Z,2.70
2023-11-21T13:50:25.741Z,2.73
2023-11-21T13:52:54.409Z,2.47
2023-11-21T13:55:25.276Z,2.10
2023-11-21T13:57:53.694Z,2.30
2023-11-21T14:00:39.458Z,2.10
2023-11-21T14:03:12.488Z,2.30
2023-11-21T14:05:40.366Z,2.13
2023-11-21T14:08:07.656Z,2.90
2023-11-21T14:10:44.722Z,3.10
2023-11-21T14:13:12.214Z,3.70
2023-11-21T14:15:46.485Z,4.33
2023-11-21T14:18:15.512Z,3.90
2023-11-21T14:20:42.896Z,4.33
2023-11-21T14:23:11.279Z,3.93
2023-11-21T14:25:40.562Z,5.20
2023-11-21T14:28:07.819Z,4.70
2023-11-21T14:30:37.037Z,5.60
2023-11-21T14:33:04.397Z,5.00
2023-11-21T14:35:33.540Z,4.40
2023-11-21T14:38:01.752Z,3.20
2023-11-21T14:40:34.029Z,3.43
2023-11-21T14:43:02.037Z,4.70
2023-11-21T14:45:30.047Z,4.77
2023-11-21T14:48:07.052Z,5.33
2023-11-21T14:50:51.128Z,5.30
2023-11-21T14:53:32.059Z,5.00
2023-11-21T14:56:01.362Z,5.93
2023-11-21T14:58:28.534Z,6.60
2023-11-21T15:00:59.393Z,7.83
2023-11-21T15:03:33.601Z,8.57
2023-11-21T15:06:20.290Z,5.60
2023-11-21T15:09:20.826Z,6.47
2023-11-21T15:11:48.879Z,6.13
2023-11-21T15:14:21.705Z,6.50
2023-11-21T15:16:52.814Z,6.53
2023-11-21T15:19:25.697Z,6.37
2023-11-21T15:21:52.872Z,7.13
2023-11-21T15:24:20.041Z,6.67
2023-11-21T15:26:47.259Z,5.70
2023-11-21T15:29:15.868Z,5.70
2023-11-21T15:31:48.970Z,6.20
2023-11-21T15:34:16.722Z,6.10
2023-11-21T15:36:43.943Z,6.17
2023-11-21T15:39:11.420Z,6.07
2023-11-21T15:41:42.608Z,5.57
2023-11-21T15:44:12.706Z,6.00
2023-11-21T15:46:42.440Z,5.83
2023-11-21T15:49:13.763Z,5.37
2023-11-21T15:51:41.983Z,5.50
2023-11-21T15:54:09.150Z,5.33
2023-11-21T15:56:36.413Z,6.40
2023-11-21T15:59:04.776Z,5.57
2023-11-21T16:01:35.916Z,5.13
2023-11-21T16:04:04.354Z,5.07
2023-11-21T16:06:32.119Z,5.03
2023-11-21T16:09:00.055Z,4.93
2023-11-21T16:11:27.258Z,5.07
2023-11-21T16:13:54.627Z,4.90
2023-11-21T16:16:22.892Z,4.90
2023-11-21T16:18:50.046Z,5.50
2023-11-21T16:21:17.177Z,7.20
2023-11-21T16:23:44.683Z,7.17
2023-11-21T16:26:12.639Z,6.73
2023-11-21T16:28:42.726Z,8.97
2023-11-21T16:31:11.496Z,7.77
2023-11-21T16:33:40.157Z,7.10
2023-11-21T16:36:07.673Z,7.30
2023-11-21T16:38:34.843Z,6.50
2023-11-21T16:41:04.065Z,6.57
2023-11-21T16:43:31.319Z,6.20
2023-11-21T16:45:58.549Z,6.47
2023-11-21T16:48:25.730Z,6.33
2023-11-21T16:50:53.271Z,6.30
2023-11-21T16:53:20.436Z,6.73
2023-11-21T16:55:49.607Z,6.60
2023-11-21T16:58:17.331Z,6.60
2023-11-21T17:00:44.577Z,7.77
2023-11-21T17:03:11.946Z,7.40
2023-11-21T17:05:39.285Z,10.30
2023-11-21T17:08:06.535Z,8.63
2023-11-21T17:10:33.702Z,8.03
2023-11-21T17:13:02.766Z,7.43
2023-11-21T17:15:29.913Z,7.87
2023-11-21T17:17:59.527Z,7.67
2023-11-21T17:20:27.641Z,8.13
2023-11-21T17:22:56.792Z,7.43
2023-11-21T17:25:23.983Z,7.63
2023-11-21T17:27:52.367Z,7.03
2023-11-21T17:30:20.236Z,7.33
2023-11-21T17:32:47.609Z,7.33
2023-11-21T17:35:15.639Z,7.70
2023-11-21T17:37:42.885Z,7.43
2023-11-21T17:40:10.158Z,5.90
2023-11-21T17:42:37.320Z,5.97
2023-11-21T17:45:04.717Z,6.63
2023-11-21T17:47:31.951Z,6.17
2023-11-21T17:49:59.170Z,7.10
2023-11-21T17:52:26.333Z,7.17
2023-11-21T17:54:53.554Z,7.10
2023-11-21T17:57:20.926Z,6.70
2023-11-21T17:59:51.647Z,6.97
2023-11-21T18:02:18.935Z,8.50
2023-11-21T18:04:46.141Z,8.53
2023-11-21T18:07:13.906Z,7.20
2023-11-21T18:09:41.063Z,7.27
2023-11-21T18:12:09.924Z,9.37
2023-11-21T18:14:38.330Z,8.63
2023-11-21T18:17:05.680Z,7.67
2023-11-21T18:19:33.782Z,7.60
2023-11-21T18:22:01.027Z,8.67
2023-11-21T18:24:29.455Z,7.90
2023-11-21T18:26:56.672Z,8.00
2023-11-21T18:29:23.856Z,8.03
2023-11-21T18:31:51.073Z,8.93
2023-11-21T18:34:19.118Z,9.60
2023-11-21T18:36:46.428Z,10.10
2023-11-21T18:39:18.340Z,8.57
2023-11-21T18:41:46.165Z,9.20
2023-11-21T18:44:13.393Z,8.93
2023-11-21T18:46:41.555Z,8.13
2023-11-21T18:49:09.645Z,7.80
2023-11-21T18:51:37.698Z,7.87
2023-11-21T18:54:06.758Z,8.57
2023-11-21T18:56:33.964Z,8.40
2023-11-21T18:59:01.190Z,8.13
2023-11-21T19:01:29.289Z,8.70
2023-11-21T19:03:56.855Z,8.47
2023-11-21T19:06:24.179Z,8.07
2023-11-21T19:08:51.546Z,8.60
2023-11-21T19:11:18.983Z,8.87
2023-11-21T19:13:47.338Z,8.87
2023-11-21T19:16:17.412Z,9.00
2023-11-21T19:18:44.799Z,8.77
2023-11-21T19:21:15.999Z,3.70
2023-11-21T19:23:43.601Z,2.70
2023-11-21T19:26:10.807Z,2.30
2023-11-21T19:28:38.016Z,1.60
2023-11-21T19:31:05.396Z,1.87
2023-11-21T19:33:32.612Z,2.03
2023-11-21T19:35:59.791Z,2.30
2023-11-21T19:38:26.998Z,2.33
2023-11-21T19:40:54.192Z,2.40
2023-11-21T19:43:21.444Z,2.10
2023-11-21T19:45:49.393Z,1.70
2023-11-21T19:48:18.105Z,1.77
2023-11-21T19:50:45.442Z,2.00
2023-11-21T19:53:12.730Z,1.70
2023-11-21T19:55:39.894Z,2.10
2023-11-21T19:58:07.957Z,1.93
2023-11-21T20:00:35.420Z,2.20
2023-11-21T20:03:03.376Z,2.00
2023-11-21T20:05:31.288Z,2.10
2023-11-21T20:07:58.502Z,2.17
2023-11-21T20:10:25.864Z,2.43
2023-11-21T20:12:58.746Z,3.57
2023-11-21T20:15:30.085Z,3.37
2023-11-21T20:17:57.240Z,3.80
2023-11-21T20:20:24.481Z,2.73
2023-11-21T20:22:52.831Z,2.80
2023-11-21T20:25:20.135Z,3.20
2023-11-21T20:27:48.136Z,3.20
2023-11-21T20:30:15.756Z,3.60
2023-11-21T20:32:42.910Z,3.37
2023-11-21T20:35:11.703Z,3.17
2023-11-21T20:37:38.935Z,3.27
2023-11-21T20:40:08.989Z,3.60
2023-11-21T20:42:37.094Z,3.10
2023-11-21T20:45:05.396Z,3.30
2023-11-21T20:47:34.118Z,2.90
2023-11-21T20:50:01.496Z,3.20
2023-11-21T20:52:28.678Z,3.00
2023-11-21T20:54:56.171Z,3.50
2023-11-21T20:57:24.661Z,3.37
2023-11-21T20:59:52.476Z,3.60
2023-11-21T21:02:19.796Z,3.50
2023-11-21T21:04:47.034Z,3.50
2023-11-21T21:07:14.733Z,3.70
2023-11-21T21:09:42.683Z,3.60
2023-11-21T21:12:12.534Z,3.40
2023-11-21T21:14:39.887Z,3.60
2023-11-21T21:17:07.305Z,3.53
2023-11-21T21:19:34.798Z,3.67
2023-11-21T21:22:02.086Z,4.27
2023-11-21T21:24:29.601Z,3.67
2023-11-21T21:26:56.829Z,3.33
2023-11-21T21:29:26.972Z,3.20
2023-11-21T21:31:54.782Z,3.50
2023-11-21T21:34:22.075Z,3.13
2023-11-21T21:36:49.310Z,3.10
2023-11-21T21:39:18.451Z,3.17
2023-11-21T21:41:45.676Z,3.10
2023-11-21T21:44:12.972Z,3.70
2023-11-21T21:46:41.164Z,3.17
2023-11-21T21:49:10.234Z,3.40
2023-11-21T21:51:38.214Z,3.20
2023-11-21T21:54:08.148Z,3.23
2023-11-21T21:56:35.615Z,3.17
2023-11-21T21:59:02.822Z,3.23
2023-11-21T22:01:31.927Z,2.80
2023-11-21T22:04:01.443Z,3.17
2023-11-21T22:06:29.989Z,3.10
2023-11-21T22:08:57.496Z,3.03
2023-11-21T22:11:24.734Z,3.20
2023-11-21T22:13:51.967Z,3.07
2023-11-21T22:16:19.225Z,2.97
2023-11-21T22:18:46.437Z,3.00
2023-11-21T22:21:18.930Z,2.93
2023-11-21T22:23:46.199Z,3.03
2023-11-21T22:26:17.038Z,3.13
2023-11-21T22:28:44.271Z,3.17
2023-11-21T22:31:11.479Z,3.07
2023-11-21T22:33:38.707Z,3.23
2023-11-21T22:36:06.134Z,3.53
2023-11-21T22:38:33.341Z,3.60
2023-11-21T22:41:00.493Z,2.90
2023-11-21T22:43:27.646Z,3.30
2023-11-21T22:45:54.831Z,3.33
2023-11-21T22:48:22.065Z,3.00
2023-11-21T22:50:49.233Z,3.57
2023-11-21T22:53:16.567Z,3.93
2023-11-21T22:55:44.218Z,3.90
2023-11-21T22:58:11.388Z,3.40
2023-11-21T23:00:39.822Z,3.70
2023-11-21T23:03:07.143Z,4.10
2023-11-21T23:05:34.417Z,3.80
2023-11-21T23:08:01.568Z,3.73
2023-11-21T23:10:28.755Z,4.07
2023-11-21T23:12:57.556Z,3.97
2023-11-21T23:15:26.179Z,3.83
2023-11-21T23:17:54.469Z,4.50
2023-11-21T23:20:22.560Z,3.87
2023-11-21T23:22:50.679Z,4.40
2023-11-21T23:25:18.330Z,4.17
2023-11-21T23:27:45.782Z,4.40
2023-11-21T23:30:14.036Z,3.70
2023-11-21T23:32:42.622Z,4.03
2023-11-21T23:35:11.753Z,4.30
2023-11-21T23:37:42.464Z,4.33
2023-11-21T23:40:10.771Z,4.37
2023-11-21T23:42:38.012Z,3.63
2023-11-21T23:45:05.630Z,4.20
2023-11-21T23:47:32.917Z,3.70
2023-11-21T23:50:00.387Z,3.97
2023-11-21T23:52:27.814Z,3.97
2023-11-21T23:54:55.497Z,3.67
2023-11-21T23:57:22.661Z,3.80
2023-11-21T23:59:51.692Z,3.63
